createdAt,value
2023-04-11T00:00:16.150Z,4.70
2023-04-11T00:02:42.763Z,5.22
2023-04-11T00:05:09.798Z,4.85
2023-04-11T00:07:36.234Z,5.13
2023-04-11T00:10:03.122Z,5.72
2023-04-11T00:12:29.706Z,5.93
2023-04-11T00:14:56.505Z,5.93
2023-04-11T00:17:23.742Z,5.25
2023-04-11T00:19:53.237Z,6.18
2023-04-11T00:22:19.783Z,5.88
2023-04-11T00:24:46.274Z,6.60
2023-04-11T00:27:12.734Z,6.60
2023-04-11T00:29:39.272Z,7.07
2023-04-11T00:32:06.041Z,7.30
2023-04-11T00:34:34.159Z,6.88
2023-04-11T00:37:01.588Z,6.93
2023-04-11T00:39:30.331Z,7.40
2023-04-11T00:42:04.837Z,7.43
2023-04-11T00:44:31.573Z,7.72
2023-04-11T00:46:58.322Z,7.80
2023-04-11T00:49:24.964Z,7.30
2023-04-11T00:51:51.460Z,7.63
2023-04-11T00:54:18.303Z,6.53
2023-04-11T00:56:44.918Z,7.35
2023-04-11T00:59:11.813Z,7.25
2023-04-11T01:01:38.422Z,7.72
2023-04-11T01:04:05.513Z,7.43
2023-04-11T01:06:32.723Z,7.75
2023-04-11T01:08:59.785Z,7.72
2023-04-11T01:11:26.415Z,7.90
2023-04-11T01:13:53.144Z,8.38
2023-04-11T01:16:21.470Z,8.50
2023-04-11T01:18:48.908Z,8.63
2023-04-11T01:21:16.750Z,9.10
2023-04-11T01:23:43.328Z,8.55
2023-04-11T01:26:09.801Z,8.38
2023-04-11T01:28:36.297Z,8.63
2023-04-11T01:31:04.006Z,7.93
2023-04-11T01:33:30.901Z,8.90
2023-04-11T01:35:57.426Z,8.73
2023-04-11T01:38:24.026Z,8.30
2023-04-11T01:40:50.949Z,8.50
2023-04-11T01:43:17.421Z,8.70
2023-04-11T01:45:43.915Z,9.05
2023-04-11T01:48:10.701Z,8.45
2023-04-11T01:50:38.435Z,8.60
2023-04-11T01:53:04.902Z,8.32
2023-04-11T01:55:31.377Z,8.65
2023-04-11T01:57:58.000Z,8.02
2023-04-11T02:00:24.541Z,8.68
2023-04-11T02:02:51.301Z,9.10
2023-04-11T02:05:17.902Z,8.88
2023-04-11T02:07:45.063Z,8.82
2023-04-11T02:10:17.001Z,8.75
2023-04-11T02:12:43.495Z,9.30
2023-04-11T02:15:10.291Z,8.93
2023-04-11T02:17:37.036Z,9.05
2023-04-11T02:20:06.966Z,9.50
2023-04-11T02:22:33.437Z,8.38
2023-04-11T02:25:00.025Z,9.82
2023-04-11T02:27:26.518Z,9.20
2023-04-11T02:29:54.477Z,9.10
2023-04-11T02:32:21.146Z,9.30
2023-04-11T02:34:47.668Z,9.40
2023-04-11T02:37:14.160Z,8.40
2023-04-11T02:39:40.733Z,10.05
2023-04-11T02:42:07.194Z,9.27
2023-04-11T02:44:33.682Z,8.50
2023-04-11T02:47:00.901Z,8.40
2023-04-11T02:49:27.756Z,8.52
2023-04-11T02:51:54.325Z,8.32
2023-04-11T02:54:21.001Z,8.70
2023-04-11T02:56:47.529Z,8.50
2023-04-11T02:59:14.082Z,8.70
2023-04-11T03:01:41.583Z,8.48
2023-04-11T03:04:08.687Z,9.10
2023-04-11T03:06:50.703Z,8.85
2023-04-11T03:09:17.190Z,9.38
2023-04-11T03:11:46.152Z,8.50
2023-04-11T03:14:13.932Z,9.00
2023-04-11T03:16:40.640Z,8.35
2023-04-11T03:19:07.156Z,8.40
2023-04-11T03:21:33.621Z,9.88
2023-04-11T03:24:00.472Z,9.35
2023-04-11T03:26:27.099Z,8.82
2023-04-11T03:28:57.323Z,8.27
2023-04-11T03:31:24.400Z,9.23
2023-04-11T03:33:53.222Z,9.05
2023-04-11T03:36:20.023Z,8.63
2023-04-11T03:38:48.393Z,8.43
2023-04-11T03:41:14.936Z,9.05
2023-04-11T03:43:41.510Z,8.73
2023-04-11T03:46:09.154Z,8.95
2023-04-11T03:48:39.948Z,9.30
2023-04-11T03:51:08.816Z,9.85
2023-04-11T03:53:40.866Z,8.85
2023-04-11T03:56:20.945Z,8.30
2023-04-11T03:58:48.008Z,9.13
2023-04-11T04:01:14.800Z,9.10
2023-04-11T04:03:41.538Z,9.25
2023-04-11T04:06:12.381Z,9.13
2023-04-11T04:08:39.578Z,9.60
2023-04-11T04:11:06.114Z,9.07
2023-04-11T04:13:34.910Z,9.23
2023-04-11T04:16:10.890Z,21.10
2023-04-11T04:18:39.789Z,28.05
2023-04-11T04:21:08.496Z,25.75
2023-04-11T04:23:36.128Z,11.70
2023-04-11T04:26:24.799Z,6.28
2023-04-11T04:29:05.847Z,7.05
2023-04-11T04:31:50.629Z,7.20
2023-04-11T04:34:22.013Z,10.60
2023-04-11T04:36:49.825Z,6.43
2023-04-11T04:39:25.328Z,10.05
2023-04-11T04:41:58.383Z,9.15
2023-04-11T04:44:30.254Z,6.63
2023-04-11T04:47:02.133Z,5.85
2023-04-11T04:49:29.080Z,9.05
2023-04-11T04:51:55.536Z,6.47
2023-04-11T04:54:23.763Z,6.05
2023-04-11T04:56:50.350Z,5.20
2023-04-11T04:59:18.595Z,6.90
2023-04-11T05:01:53.678Z,9.93
2023-04-11T05:04:26.722Z,12.35
2023-04-11T05:06:57.017Z,10.70
2023-04-11T05:09:24.068Z,7.45
2023-04-11T05:11:53.191Z,5.90
2023-04-11T05:14:22.186Z,3.38
2023-04-11T05:16:49.044Z,3.97
2023-04-11T05:19:15.653Z,4.13
2023-04-11T05:21:46.442Z,4.18
2023-04-11T05:24:13.452Z,2.80
2023-04-11T05:26:40.340Z,3.72
2023-04-11T05:29:07.695Z,2.47
2023-04-11T05:31:34.608Z,2.40
2023-04-11T05:34:02.281Z,3.17
2023-04-11T05:36:28.921Z,2.85
2023-04-11T05:38:55.594Z,2.40
2023-04-11T05:41:22.036Z,3.17
2023-04-11T05:43:48.471Z,3.05
2023-04-11T05:46:15.040Z,2.17
2023-04-11T05:48:41.569Z,2.60
2023-04-11T05:51:09.230Z,2.55
2023-04-11T05:53:35.859Z,2.10
2023-04-11T05:56:02.440Z,1.90
2023-04-11T05:58:31.621Z,1.60
2023-04-11T06:00:59.749Z,1.48
2023-04-11T06:03:27.096Z,1.85
2023-04-11T06:05:54.080Z,2.17
2023-04-11T06:08:21.381Z,2.00
2023-04-11T06:10:47.822Z,1.73
2023-04-11T06:13:14.255Z,1.55
2023-04-11T06:15:40.755Z,1.70
2023-04-11T06:18:07.244Z,1.25
2023-04-11T06:20:33.691Z,1.48
2023-04-11T06:23:01.335Z,1.63
2023-04-11T06:25:27.770Z,1.50
2023-04-11T06:27:54.215Z,1.77
2023-04-11T06:30:20.921Z,1.27
2023-04-11T06:32:47.577Z,1.90
2023-04-11T06:35:14.146Z,1.90
2023-04-11T06:37:42.314Z,1.60
2023-04-11T06:40:09.376Z,1.45
2023-04-11T06:42:35.872Z,1.38
2023-04-11T06:45:04.081Z,1.67
2023-04-11T06:47:30.777Z,1.25
2023-04-11T06:49:57.250Z,1.60
2023-04-11T06:52:24.321Z,1.70
2023-04-11T06:54:51.825Z,1.50
2023-04-11T06:57:18.319Z,1.48
2023-04-11T06:59:44.753Z,1.48
2023-04-11T07:02:11.418Z,1.40
2023-04-11T07:04:38.195Z,1.40
2023-04-11T07:07:04.748Z,1.58
2023-04-11T07:09:31.609Z,1.48
2023-04-11T07:11:58.593Z,1.40
2023-04-11T07:14:25.439Z,1.20
2023-04-11T07:16:52.011Z,1.35
2023-04-11T07:19:18.514Z,1.38
2023-04-11T07:21:45.088Z,1.38
2023-04-11T07:24:13.249Z,1.60
2023-04-11T07:26:42.178Z,1.63
2023-04-11T07:29:11.549Z,1.30
2023-04-11T07:31:39.686Z,1.73
2023-04-11T07:34:07.022Z,1.58
2023-04-11T07:36:34.342Z,1.63
2023-04-11T07:39:00.927Z,1.67
2023-04-11T07:41:27.416Z,1.67
2023-04-11T07:43:54.040Z,1.70
2023-04-11T07:46:20.628Z,1.73
2023-04-11T07:48:47.109Z,1.80
2023-04-11T07:51:13.564Z,1.98
2023-04-11T07:53:40.277Z,1.40
2023-04-11T07:56:07.098Z,1.50
2023-04-11T07:58:33.587Z,2.05
2023-04-11T08:01:00.159Z,1.63
2023-04-11T08:03:27.133Z,1.45
2023-04-11T08:05:54.062Z,2.05
2023-04-11T08:08:20.482Z,1.83
2023-04-11T08:10:46.947Z,1.20
2023-04-11T08:13:13.411Z,1.75
2023-04-11T08:15:39.895Z,1.50
2023-04-11T08:18:06.399Z,2.10
2023-04-11T08:20:32.981Z,1.70
2023-04-11T08:23:00.473Z,1.85
2023-04-11T08:25:27.075Z,1.95
2023-04-11T08:27:53.652Z,1.75
2023-04-11T08:30:20.747Z,1.80
2023-04-11T08:32:47.515Z,1.95
2023-04-11T08:35:14.041Z,1.55
2023-04-11T08:37:40.652Z,1.95
2023-04-11T08:40:07.606Z,1.88
2023-04-11T08:42:34.840Z,1.63
2023-04-11T08:45:04.076Z,1.45
2023-04-11T08:47:30.829Z,1.65
2023-04-11T08:49:57.320Z,1.63
2023-04-11T08:52:24.310Z,1.70
2023-04-11T08:54:56.422Z,2.40
2023-04-11T08:57:27.455Z,1.55
2023-04-11T08:59:55.618Z,2.05
2023-04-11T09:02:22.769Z,1.90
2023-04-11T09:04:49.449Z,1.70
2023-04-11T09:07:19.292Z,0.88
2023-04-11T09:09:46.156Z,1.27
2023-04-11T09:12:13.143Z,1.42
2023-04-11T09:14:39.669Z,1.40
2023-04-11T09:17:13.327Z,1.52
2023-04-11T09:19:42.010Z,1.70
2023-04-11T09:22:08.602Z,2.40
2023-04-11T09:24:36.612Z,1.90
2023-04-11T09:27:12.091Z,2.15
2023-04-11T09:29:41.275Z,1.92
2023-04-11T09:32:08.266Z,1.70
2023-04-11T09:34:37.621Z,1.60
2023-04-11T09:37:04.486Z,1.67
2023-04-11T09:39:32.470Z,1.50
2023-04-11T09:41:59.067Z,1.20
2023-04-11T09:44:37.014Z,1.60
2023-04-11T09:47:03.622Z,1.90
2023-04-11T09:49:31.281Z,2.33
2023-04-11T09:51:57.765Z,2.25
2023-04-11T09:54:25.374Z,1.98
2023-04-11T09:56:51.908Z,2.35
2023-04-11T09:59:19.976Z,1.85
2023-04-11T10:01:47.120Z,2.20
2023-04-11T10:04:14.412Z,1.92
2023-04-11T10:07:02.094Z,1.90
2023-04-11T10:09:29.607Z,1.55
2023-04-11T10:11:56.072Z,1.90
2023-04-11T10:14:37.885Z,1.50
2023-04-11T10:17:21.258Z,1.55
2023-04-11T10:19:51.454Z,1.30
2023-04-11T10:22:48.948Z,2.03
2023-04-11T10:25:17.008Z,1.40
2023-04-11T10:27:48.646Z,1.42
2023-04-11T10:30:15.327Z,1.40
2023-04-11T10:32:41.981Z,1.80
2023-04-11T10:35:21.592Z,2.00
2023-04-11T10:37:48.578Z,1.88
2023-04-11T10:40:15.087Z,1.27
2023-04-11T10:42:43.117Z,1.13
2023-04-11T10:45:25.464Z,1.35
2023-04-11T10:47:51.899Z,1.40
2023-04-11T10:50:27.146Z,1.40
2023-04-11T10:52:55.364Z,1.25
2023-04-11T10:55:22.596Z,1.67
2023-04-11T10:58:09.860Z,1.60
2023-04-11T11:00:49.561Z,1.33
2023-04-11T11:03:23.265Z,1.52
2023-04-11T11:06:01.603Z,1.50
2023-04-11T11:08:30.401Z,1.70
2023-04-11T11:11:04.714Z,1.83
2023-04-11T11:13:41.078Z,1.60
2023-04-11T11:16:08.456Z,1.55
2023-04-11T11:18:35.045Z,1.60
2023-04-11T11:21:01.475Z,2.25
2023-04-11T11:23:27.969Z,2.15
2023-04-11T11:25:55.866Z,1.90
2023-04-11T11:28:22.396Z,2.10
2023-04-11T11:30:55.067Z,2.13
2023-04-11T11:33:23.938Z,1.95
2023-04-11T11:35:54.944Z,2.00
2023-04-11T11:38:22.740Z,1.63
2023-04-11T11:40:49.602Z,2.45
2023-04-11T11:43:16.508Z,2.10
2023-04-11T11:45:43.802Z,1.77
2023-04-11T11:48:25.664Z,2.20
2023-04-11T11:50:58.620Z,2.00
2023-04-11T11:53:26.593Z,2.00
2023-04-11T11:55:53.663Z,2.03
2023-04-11T11:58:20.306Z,2.53
2023-04-11T12:00:50.819Z,2.10
2023-04-11T12:03:21.294Z,2.05
2023-04-11T12:05:47.954Z,1.85
2023-04-11T12:08:14.723Z,2.50
2023-04-11T12:10:42.764Z,1.90
2023-04-11T12:13:14.090Z,1.88
2023-04-11T12:15:41.983Z,1.88
2023-04-11T12:18:08.608Z,1.77
2023-04-11T12:20:35.464Z,2.03
2023-04-11T12:23:01.964Z,1.80
2023-04-11T12:25:28.541Z,2.25
2023-04-11T12:27:55.044Z,1.67
2023-04-11T12:30:21.505Z,1.70
2023-04-11T12:32:48.014Z,1.65
2023-04-11T12:35:14.491Z,2.05
2023-04-11T12:37:41.313Z,1.98
2023-04-11T12:40:12.601Z,1.83
2023-04-11T12:42:53.353Z,2.00
2023-04-11T12:45:22.958Z,2.28
2023-04-11T12:47:49.508Z,2.13
2023-04-11T12:50:16.130Z,1.92
2023-04-11T12:52:43.023Z,2.05
2023-04-11T12:55:09.962Z,1.50
2023-04-11T12:57:36.664Z,1.73
2023-04-11T13:00:07.103Z,1.38
2023-04-11T13:02:42.300Z,1.20
2023-04-11T13:05:11.688Z,1.23
2023-04-11T13:07:39.118Z,1.38
2023-04-11T13:10:08.991Z,1.30
2023-04-11T13:12:41.096Z,1.33
2023-04-11T13:15:09.293Z,1.20
2023-04-11T13:17:35.756Z,1.40
2023-04-11T13:20:02.516Z,1.63
2023-04-11T13:22:29.091Z,1.40
2023-04-11T13:24:55.588Z,1.45
2023-04-11T13:27:22.176Z,1.00
2023-04-11T13:29:48.759Z,0.85
2023-04-11T13:32:15.345Z,0.90
2023-04-11T13:34:41.841Z,1.05
2023-04-11T13:37:08.393Z,1.08
2023-04-11T13:39:34.894Z,1.05
2023-04-11T13:42:01.398Z,0.70
2023-04-11T13:44:27.892Z,0.80
2023-04-11T13:46:54.354Z,0.77
2023-04-11T13:49:21.092Z,0.95
2023-04-11T13:51:47.599Z,0.90
2023-04-11T13:54:14.083Z,1.10
2023-04-11T13:56:41.103Z,1.33
2023-04-11T13:59:07.619Z,1.00
2023-04-11T14:01:34.164Z,0.90
2023-04-11T14:04:01.260Z,0.90
2023-04-11T14:06:28.264Z,1.08
2023-04-11T14:08:54.731Z,1.30
2023-04-11T14:11:21.571Z,1.52
2023-04-11T14:13:48.894Z,1.70
2023-04-11T14:16:15.615Z,1.65
2023-04-11T14:18:42.302Z,1.50
2023-04-11T14:21:08.820Z,1.42
2023-04-11T14:23:35.759Z,1.40
2023-04-11T14:26:02.263Z,1.40
2023-04-11T14:28:28.769Z,1.60
2023-04-11T14:30:55.963Z,1.38
2023-04-11T14:33:23.043Z,1.70
2023-04-11T14:35:50.673Z,1.90
2023-04-11T14:38:17.179Z,1.70
2023-04-11T14:40:44.373Z,1.88
2023-04-11T14:43:11.260Z,1.60
2023-04-11T14:45:37.865Z,1.60
2023-04-11T14:48:04.712Z,1.75
2023-04-11T14:50:31.310Z,2.95
2023-04-11T14:52:57.857Z,3.05
2023-04-11T14:55:24.385Z,2.58
2023-04-11T14:57:53.073Z,2.00
2023-04-11T15:00:20.347Z,2.03
2023-04-11T15:02:48.004Z,1.58
2023-04-11T15:05:16.846Z,1.60
2023-04-11T15:07:45.313Z,1.77
2023-04-11T15:10:12.826Z,1.90
2023-04-11T15:12:39.650Z,1.80
2023-04-11T15:15:08.736Z,1.63
2023-04-11T15:17:40.027Z,1.42
2023-04-11T15:20:08.401Z,1.92
2023-04-11T15:22:35.040Z,1.70
2023-04-11T15:25:01.531Z,1.98
2023-04-11T15:27:28.013Z,1.80
2023-04-11T15:29:55.967Z,1.80
2023-04-11T15:32:22.502Z,1.70
2023-04-11T15:34:50.719Z,1.75
2023-04-11T15:37:17.453Z,1.83
2023-04-11T15:39:43.925Z,1.52
2023-04-11T15:42:10.377Z,2.00
2023-04-11T15:44:36.927Z,1.60
2023-04-11T15:47:03.406Z,2.00
2023-04-11T15:49:30.170Z,1.67
2023-04-11T15:51:56.720Z,1.77
2023-04-11T15:54:23.206Z,1.15
2023-04-11T15:56:50.181Z,1.42
2023-04-11T15:59:16.731Z,1.15
2023-04-11T16:01:43.866Z,1.17
2023-04-11T16:04:12.054Z,1.20
2023-04-11T16:06:41.465Z,0.95
2023-04-11T16:09:08.632Z,1.38
2023-04-11T16:11:36.978Z,1.30
2023-04-11T16:14:03.479Z,1.10
2023-04-11T16:16:30.008Z,1.20
2023-04-11T16:18:56.532Z,1.23
2023-04-11T16:21:24.759Z,1.60
2023-04-11T16:23:54.858Z,1.30
2023-04-11T16:26:21.547Z,1.27
2023-04-11T16:28:48.546Z,1.67
2023-04-11T16:31:21.490Z,1.67
2023-04-11T16:33:48.051Z,2.10
2023-04-11T16:36:14.616Z,1.40
2023-04-11T16:38:41.082Z,1.30
2023-04-11T16:41:07.569Z,1.38
2023-04-11T16:43:34.032Z,1.50
2023-04-11T16:46:00.559Z,1.33
2023-04-11T16:48:27.188Z,1.30
2023-04-11T16:50:53.685Z,1.50
2023-04-11T16:53:20.215Z,1.48
2023-04-11T16:55:46.712Z,1.80
2023-04-11T16:58:13.202Z,2.38
2023-04-11T17:00:39.668Z,1.52
2023-04-11T17:03:07.173Z,1.50
2023-04-11T17:05:36.505Z,1.40
2023-04-11T17:08:02.994Z,1.50
2023-04-11T17:10:29.648Z,1.65
2023-04-11T17:12:58.225Z,1.50
2023-04-11T17:15:24.710Z,1.58
2023-04-11T17:17:51.279Z,1.70
2023-04-11T17:20:17.844Z,1.48
2023-04-11T17:22:44.875Z,2.00
2023-04-11T17:25:11.727Z,1.85
2023-04-11T17:27:38.865Z,1.73
2023-04-11T17:30:06.929Z,2.85
2023-04-11T17:32:35.267Z,1.65
2023-04-11T17:35:04.294Z,1.60
2023-04-11T17:37:30.786Z,1.70
2023-04-11T17:39:57.638Z,1.73
2023-04-11T17:42:24.271Z,1.83
2023-04-11T17:44:50.758Z,2.40
2023-04-11T17:47:17.549Z,2.97
2023-04-11T17:49:45.458Z,1.90
2023-04-11T17:52:11.946Z,2.17
2023-04-11T17:54:39.852Z,2.20
2023-04-11T17:57:06.820Z,1.55
2023-04-11T17:59:33.314Z,1.75
2023-04-11T18:01:59.906Z,2.80
2023-04-11T18:04:26.531Z,1.95
2023-04-11T18:06:53.029Z,1.40
2023-04-11T18:09:20.284Z,1.30
2023-04-11T18:11:46.775Z,1.30
2023-04-11T18:14:13.231Z,1.40
2023-04-11T18:16:40.417Z,1.60
2023-04-11T18:19:06.976Z,1.40
2023-04-11T18:21:33.454Z,1.98
2023-04-11T18:23:59.884Z,1.65
2023-04-11T18:26:27.230Z,2.00
2023-04-11T18:28:53.691Z,1.83
2023-04-11T18:31:20.194Z,2.00
2023-04-11T18:33:47.942Z,1.77
2023-04-11T18:36:14.907Z,2.22
2023-04-11T18:38:41.505Z,2.10
2023-04-11T18:41:08.475Z,1.60
2023-04-11T18:43:35.367Z,1.85
2023-04-11T18:46:02.065Z,1.50
2023-04-11T18:48:28.517Z,1.80
2023-04-11T18:51:01.768Z,1.70
2023-04-11T18:53:29.936Z,1.33
2023-04-11T18:55:56.487Z,1.63
2023-04-11T18:58:25.655Z,1.90
2023-04-11T19:00:53.236Z,2.22
2023-04-11T19:03:20.223Z,1.33
2023-04-11T19:05:48.161Z,1.50
2023-04-11T19:08:14.780Z,1.55
2023-04-11T19:10:41.243Z,1.10
2023-04-11T19:13:07.755Z,1.17
2023-04-11T19:15:34.304Z,1.33
2023-04-11T19:18:01.611Z,1.40
2023-04-11T19:20:29.369Z,48.20
2023-04-11T19:22:55.870Z,2.47
2023-04-11T19:25:22.383Z,3.03
2023-04-11T19:27:49.685Z,2.90
2023-04-11T19:30:16.317Z,2.50
2023-04-11T19:32:47.415Z,2.35
2023-04-11T19:35:14.543Z,2.35
2023-04-11T19:37:41.243Z,1.75
2023-04-11T19:40:08.549Z,1.20
2023-04-11T19:42:37.188Z,1.33
2023-04-11T19:45:04.674Z,1.70
2023-04-11T19:47:32.099Z,2.20
2023-04-11T19:50:00.522Z,2.13
2023-04-11T19:52:27.596Z,2.15
2023-04-11T19:54:55.178Z,1.63
2023-04-11T19:57:22.972Z,1.60
2023-04-11T19:59:49.516Z,1.52
2023-04-11T20:02:16.138Z,1.88
2023-04-11T20:04:43.036Z,1.73
2023-04-11T20:07:10.118Z,1.67
2023-04-11T20:09:36.725Z,1.73
2023-04-11T20:12:05.580Z,2.00
2023-04-11T20:14:32.122Z,1.60
2023-04-11T20:16:59.694Z,1.75
2023-04-11T20:19:31.562Z,1.60
2023-04-11T20:22:00.785Z,1.40
2023-04-11T20:24:27.684Z,1.35
2023-04-11T20:26:54.330Z,1.80
2023-04-11T20:29:21.188Z,1.80
2023-04-11T20:31:47.629Z,1.45
2023-04-11T20:34:14.100Z,1.65
2023-04-11T20:36:40.601Z,1.55
2023-04-11T20:39:07.066Z,1.42
2023-04-11T20:41:33.961Z,1.38
2023-04-11T20:44:00.549Z,1.65
2023-04-11T20:46:29.651Z,1.80
2023-04-11T20:48:56.376Z,2.17
2023-04-11T20:51:22.902Z,2.65
2023-04-11T20:53:49.371Z,1.85
2023-04-11T20:56:15.968Z,2.60
2023-04-11T20:58:42.699Z,2.20
2023-04-11T21:01:09.258Z,1.90
2023-04-11T21:03:37.568Z,2.33
2023-04-11T21:06:07.340Z,2.70
2023-04-11T21:08:35.245Z,2.22
2023-04-11T21:11:02.035Z,2.67
2023-04-11T21:13:28.537Z,2.50
2023-04-11T21:15:55.044Z,2.10
2023-04-11T21:18:21.538Z,2.10
2023-04-11T21:20:48.022Z,1.65
2023-04-11T21:23:14.476Z,1.50
2023-04-11T21:25:41.259Z,1.70
2023-04-11T21:28:07.724Z,1.77
2023-04-11T21:30:34.247Z,2.17
2023-04-11T21:33:00.747Z,1.63
2023-04-11T21:35:27.335Z,1.63
2023-04-11T21:37:53.778Z,1.40
2023-04-11T21:40:20.324Z,2.03
2023-04-11T21:42:46.822Z,1.75
2023-04-11T21:45:13.358Z,1.70
2023-04-11T21:47:39.959Z,1.40
2023-04-11T21:50:07.044Z,1.70
2023-04-11T21:52:33.510Z,2.80
2023-04-11T21:54:59.995Z,2.08
2023-04-11T21:57:27.085Z,1.90
2023-04-11T21:59:53.600Z,2.13
2023-04-11T22:02:20.239Z,2.33
2023-04-11T22:05:04.968Z,2.17
2023-04-11T22:07:38.994Z,2.03
2023-04-11T22:10:09.556Z,1.65
2023-04-11T22:12:36.572Z,2.47
2023-04-11T22:15:04.050Z,1.80
2023-04-11T22:17:34.462Z,2.40
2023-04-11T22:20:00.952Z,1.98
2023-04-11T22:22:30.386Z,1.73
2023-04-11T22:24:59.834Z,1.85
2023-04-11T22:27:26.698Z,1.60
2023-04-11T22:29:56.150Z,2.25
2023-04-11T22:32:23.586Z,1.80
2023-04-11T22:34:50.185Z,2.00
2023-04-11T22:37:16.698Z,2.10
2023-04-11T22:39:43.206Z,1.98
2023-04-11T22:42:11.411Z,1.83
2023-04-11T22:44:37.879Z,2.03
2023-04-11T22:47:06.854Z,2.03
2023-04-11T22:49:40.550Z,2.08
2023-04-11T22:54:35.192Z,1.85
2023-04-11T22:57:01.683Z,2.60
2023-04-11T22:59:28.339Z,1.90
2023-04-11T23:01:55.025Z,1.90
2023-04-11T23:04:22.252Z,2.13
2023-04-11T23:06:50.041Z,2.15
2023-04-11T23:09:17.702Z,2.30
2023-04-11T23:11:45.270Z,1.95
2023-04-11T23:14:12.196Z,2.13
2023-04-11T23:16:38.707Z,1.77
2023-04-11T23:19:05.181Z,2.05
2023-04-11T23:21:31.625Z,2.15
2023-04-11T23:23:58.372Z,1.98
2023-04-11T23:26:25.093Z,1.88
2023-04-11T23:28:51.539Z,2.00
2023-04-11T23:31:18.472Z,2.10
2023-04-11T23:33:44.929Z,2.47
2023-04-11T23:36:12.845Z,2.03
2023-04-11T23:38:39.420Z,2.08
2023-04-11T23:41:06.193Z,2.17
2023-04-11T23:43:32.829Z,1.92
2023-04-11T23:45:59.431Z,3.08
2023-04-11T23:48:26.034Z,3.15
2023-04-11T23:50:52.496Z,4.30
2023-04-11T23:53:18.918Z,8.55
2023-04-11T23:55:45.376Z,8.40
2023-04-11T23:58:11.841Z,6.57
